createdAt,value
2022-10-18T00:00:08.037Z,69.98
2022-10-18T00:05:07.812Z,69.98
2022-10-18T00:10:08.544Z,69.97
2022-10-18T00:15:08.271Z,69.99
2022-10-18T00:20:08.022Z,70.02
2022-10-18T00:25:07.745Z,70.0
2022-10-18T00:30:08.553Z,70.04
2022-10-18T00:35:08.292Z,70.04
2022-10-18T00:40:07.973Z,70.03
2022-10-18T00:45:07.689Z,70.04
2022-10-18T00:50:08.419Z,70.06
2022-10-18T00:55:08.126Z,70.07
2022-10-18T01:00:07.817Z,70.05
2022-10-18T01:05:08.514Z,70.08
2022-10-18T01:10:08.175Z,70.08
2022-10-18T01:15:07.882Z,70.08
2022-10-18T01:20:08.567Z,70.09
2022-10-18T01:25:18.231Z,70.1
2022-10-18T01:30:07.959Z,70.11
2022-10-18T01:35:07.737Z,70.1
2022-10-18T01:40:08.469Z,70.1
2022-10-18T01:45:08.166Z,70.13
2022-10-18T01:50:07.874Z,70.12
2022-10-18T01:55:08.595Z,70.11
2022-10-18T02:00:08.289Z,70.13
2022-10-18T02:05:08.028Z,70.13
2022-10-18T02:15:13.625Z,70.13
2022-10-18T02:20:08.547Z,70.15
2022-10-18T02:25:08.226Z,70.15
2022-10-18T02:30:07.927Z,70.16
2022-10-18T02:35:18.606Z,70.17
2022-10-18T02:40:08.319Z,70.17
2022-10-18T02:45:08.021Z,70.19
2022-10-18T02:50:08.503Z,70.18
2022-10-18T02:55:08.179Z,70.18
2022-10-18T03:00:07.889Z,70.17
2022-10-18T03:05:08.569Z,70.18
2022-10-18T03:10:08.285Z,70.19
2022-10-18T03:15:07.984Z,70.19
2022-10-18T03:20:07.679Z,70.18
2022-10-18T03:25:08.366Z,70.18
2022-10-18T03:30:08.030Z,70.18
2022-10-18T03:35:07.736Z,70.18
2022-10-18T03:40:08.456Z,70.18
2022-10-18T03:45:08.168Z,70.2
2022-10-18T03:50:07.871Z,70.19
2022-10-18T03:55:08.745Z,70.19
2022-10-18T04:00:08.495Z,70.19
2022-10-18T04:05:02.217Z,70.2
2022-10-18T04:10:01.965Z,70.21
2022-10-18T04:15:01.763Z,70.2
2022-10-18T04:20:02.548Z,70.21
2022-10-18T04:25:02.239Z,70.21
2022-10-18T04:30:02.527Z,70.21
2022-10-18T04:35:02.329Z,70.23
2022-10-18T04:40:02.172Z,70.22
2022-10-18T04:45:02.008Z,70.23
2022-10-18T04:50:01.813Z,70.21
2022-10-18T04:55:02.564Z,70.21
2022-10-18T05:00:02.288Z,70.24
2022-10-18T05:05:02.019Z,70.22
2022-10-18T05:10:01.911Z,70.22
2022-10-18T05:15:02.701Z,70.22
2022-10-18T05:20:02.621Z,70.25
2022-10-18T05:25:02.456Z,70.23
2022-10-18T05:30:05.355Z,70.24
2022-10-18T05:35:02.636Z,70.22
2022-10-18T05:40:02.444Z,70.25
2022-10-18T05:45:02.284Z,70.22
2022-10-18T05:50:03.862Z,70.23
2022-10-18T05:55:02.770Z,70.25
2022-10-18T06:00:02.710Z,70.25
2022-10-18T06:05:02.844Z,70.24
2022-10-18T06:10:02.772Z,70.26
2022-10-18T06:15:02.673Z,70.24
2022-10-18T06:20:02.405Z,70.25
2022-10-18T06:25:02.345Z,70.24
2022-10-18T06:30:02.161Z,70.25
2022-10-18T06:35:01.987Z,70.25
2022-10-18T06:40:01.718Z,70.27
2022-10-18T06:45:02.463Z,70.25
2022-10-18T06:50:02.293Z,70.27
2022-10-18T06:55:04.232Z,70.25
2022-10-18T07:00:01.953Z,70.27
2022-10-18T07:05:01.795Z,70.27
2022-10-18T07:10:02.659Z,70.28
2022-10-18T07:15:05.608Z,70.27
2022-10-18T07:20:02.121Z,70.26
2022-10-18T07:25:02.083Z,70.27
2022-10-18T07:30:01.870Z,70.27
2022-10-18T07:35:02.683Z,70.27
2022-10-18T07:40:02.529Z,70.28
2022-10-18T07:45:02.559Z,70.28
2022-10-18T07:50:02.330Z,70.28
2022-10-18T07:55:02.112Z,70.28
2022-10-18T08:00:02.104Z,70.28
2022-10-18T08:05:01.895Z,70.28
2022-10-18T08:10:02.874Z,70.24
2022-10-18T08:15:02.785Z,70.26
2022-10-18T08:20:19.028Z,70.29
2022-10-18T08:25:02.452Z,70.29
2022-10-18T08:30:02.258Z,70.3
2022-10-18T08:35:04.320Z,70.31
2022-10-18T08:40:02.848Z,70.3
2022-10-18T08:45:08.290Z,70.3
2022-10-18T08:50:02.310Z,70.3
2022-10-18T08:55:02.225Z,70.3
2022-10-18T09:00:02.297Z,70.29
2022-10-18T09:05:02.533Z,70.27
2022-10-18T09:10:02.304Z,70.27
2022-10-18T09:15:02.148Z,70.26
2022-10-18T09:20:11.966Z,70.28
2022-10-18T09:25:01.803Z,70.28
2022-10-18T09:30:02.580Z,70.28
2022-10-18T09:35:02.388Z,70.28
2022-10-18T09:40:02.218Z,70.27
2022-10-18T09:45:02.018Z,70.28
2022-10-18T09:50:01.764Z,70.28
2022-10-18T09:55:02.699Z,70.27
2022-10-18T10:00:02.467Z,70.24
2022-10-18T10:05:02.327Z,70.22
2022-10-18T10:10:02.305Z,70.18
2022-10-18T10:15:02.501Z,70.17
2022-10-18T10:20:02.365Z,70.13
2022-10-18T10:25:02.203Z,70.1
2022-10-18T10:30:06.782Z,70.07
2022-10-18T10:35:02.146Z,70.03
2022-10-18T10:40:18.233Z,69.98
2022-10-18T10:45:02.620Z,69.93
2022-10-18T10:50:02.464Z,69.89
2022-10-18T10:55:11.384Z,69.83
2022-10-18T11:00:01.987Z,69.78
2022-10-18T11:05:02.017Z,69.73
2022-10-18T11:10:01.895Z,69.65
2022-10-18T11:15:02.820Z,69.64
2022-10-18T11:20:02.779Z,69.56
2022-10-18T11:25:02.798Z,69.51
2022-10-18T11:30:02.764Z,69.46
2022-10-18T11:35:02.636Z,69.42
2022-10-18T11:40:02.611Z,69.35
2022-10-18T11:45:02.657Z,69.3
2022-10-18T11:50:02.577Z,69.26
2022-10-18T11:55:02.410Z,69.23
2022-10-18T12:00:07.835Z,69.18
2022-10-18T12:05:22.704Z,69.12
2022-10-18T12:10:02.580Z,69.04
2022-10-18T12:15:02.315Z,69.0
2022-10-18T12:20:02.137Z,68.92
2022-10-18T12:25:01.974Z,68.9
2022-10-18T12:30:01.809Z,68.81
2022-10-18T12:35:02.656Z,68.79
2022-10-18T12:40:11.080Z,68.75
2022-10-18T12:45:12.280Z,68.72
2022-10-18T12:50:02.121Z,68.66
2022-10-18T12:55:01.871Z,68.61
2022-10-18T13:00:02.628Z,68.53
2022-10-18T13:05:02.721Z,68.53
2022-10-18T13:10:02.472Z,68.42
2022-10-18T13:15:20.540Z,68.41
2022-10-18T13:20:25.719Z,68.35
2022-10-18T13:25:02.078Z,68.29
2022-10-18T13:30:01.902Z,68.24
2022-10-18T13:35:02.638Z,68.22
2022-10-18T13:40:02.473Z,68.18
2022-10-18T13:45:02.573Z,68.14
2022-10-18T13:50:02.441Z,68.15
2022-10-18T13:55:02.341Z,68.12
2022-10-18T14:00:02.215Z,68.13
2022-10-18T14:05:17.011Z,68.12
2022-10-18T14:10:04.300Z,68.06
2022-10-18T14:15:02.399Z,68.03
2022-10-18T14:20:02.478Z,68.03
2022-10-18T14:25:02.464Z,68.02
2022-10-18T14:30:02.443Z,67.97
2022-10-18T14:35:27.566Z,67.97
2022-10-18T14:40:02.823Z,67.93
2022-10-18T14:45:02.734Z,67.91
2022-10-18T14:50:02.689Z,67.9
2022-10-18T14:55:02.625Z,67.89
2022-10-18T15:00:02.478Z,67.83
2022-10-18T15:05:02.352Z,67.84
2022-10-18T15:10:02.264Z,67.83
2022-10-18T15:15:02.186Z,67.8
2022-10-18T15:20:05.205Z,67.8
2022-10-18T15:25:02.150Z,67.79
2022-10-18T15:30:01.968Z,67.76
2022-10-18T15:35:02.148Z,67.74
2022-10-18T15:40:01.921Z,67.76
2022-10-18T15:45:02.779Z,67.71
2022-10-18T15:50:02.509Z,67.73
2022-10-18T15:55:02.331Z,67.71
2022-10-18T16:00:02.237Z,67.67
2022-10-18T16:05:02.083Z,67.68
2022-10-18T16:10:01.927Z,67.67
2022-10-18T16:15:02.680Z,67.65
2022-10-18T16:20:02.512Z,67.64
2022-10-18T16:25:02.329Z,67.61
2022-10-18T16:30:04.174Z,67.6
2022-10-18T16:35:01.965Z,67.6
2022-10-18T16:40:01.913Z,67.59
2022-10-18T16:45:02.867Z,67.58
2022-10-18T16:50:06.513Z,67.58
2022-10-18T16:55:01.817Z,67.56
2022-10-18T17:00:02.706Z,67.55
2022-10-18T17:05:02.608Z,67.54
2022-10-18T17:10:03.337Z,67.49
2022-10-18T17:15:02.275Z,67.5
2022-10-18T17:20:02.097Z,67.54
2022-10-18T17:25:02.230Z,67.57
2022-10-18T17:30:02.075Z,67.6
2022-10-18T17:35:01.885Z,67.69
2022-10-18T17:40:02.654Z,67.74
2022-10-18T17:45:02.569Z,67.81
2022-10-18T17:50:02.393Z,67.88
2022-10-18T17:55:02.224Z,68.0
2022-10-18T18:00:02.118Z,68.06
2022-10-18T18:05:01.919Z,68.09
2022-10-18T18:10:02.746Z,68.07
2022-10-18T18:15:02.659Z,68.15
2022-10-18T18:20:02.485Z,68.25
2022-10-18T18:25:02.231Z,68.27
2022-10-18T18:30:02.316Z,68.39
2022-10-18T18:35:02.126Z,68.44
2022-10-18T18:40:02.083Z,68.51
2022-10-18T18:45:01.829Z,68.52
2022-10-18T18:50:02.684Z,68.59
2022-10-18T18:55:02.527Z,68.63
2022-10-18T19:00:02.344Z,68.66
2022-10-18T19:05:02.185Z,68.66
2022-10-18T19:10:01.970Z,68.72
2022-10-18T19:15:01.726Z,68.73
2022-10-18T19:20:02.700Z,68.77
2022-10-18T19:25:02.598Z,68.79
2022-10-18T19:30:02.476Z,68.84
2022-10-18T19:35:02.371Z,68.85
2022-10-18T19:40:02.317Z,68.89
2022-10-18T19:45:02.233Z,68.91
2022-10-18T19:50:02.185Z,68.93
2022-10-18T19:55:02.086Z,68.95
2022-10-18T20:00:03.467Z,68.98
2022-10-18T20:05:02.248Z,69.02
2022-10-18T20:10:01.983Z,69.04
2022-10-18T20:15:01.822Z,69.05
2022-10-18T20:20:02.567Z,69.06
2022-10-18T20:25:02.464Z,69.08
2022-10-18T20:30:03.713Z,69.13
2022-10-18T20:35:08.070Z,69.14
2022-10-18T20:40:07.789Z,69.16
2022-10-18T20:45:08.640Z,69.18
2022-10-18T20:50:08.468Z,69.2
2022-10-18T20:55:08.215Z,69.23
2022-10-18T21:00:07.899Z,69.24
2022-10-18T21:05:08.589Z,69.27
2022-10-18T21:10:08.285Z,69.33
2022-10-18T21:15:07.989Z,69.34
2022-10-18T21:20:07.713Z,69.37
2022-10-18T21:25:08.468Z,69.35
2022-10-18T21:30:08.245Z,69.41
2022-10-18T21:35:07.972Z,69.43
2022-10-18T21:40:07.692Z,69.48
2022-10-18T21:45:08.430Z,69.48
2022-10-18T21:50:08.166Z,69.51
2022-10-18T21:55:07.892Z,69.52
2022-10-18T22:00:08.615Z,69.53
2022-10-18T22:05:11.241Z,69.53
2022-10-18T22:10:07.936Z,69.58
2022-10-18T22:15:08.629Z,69.58
2022-10-18T22:20:08.371Z,69.63
2022-10-18T22:25:08.157Z,69.62
2022-10-18T22:30:07.884Z,69.66
2022-10-18T22:35:08.594Z,69.67
2022-10-18T22:40:08.287Z,69.7
2022-10-18T22:45:08.038Z,69.71
2022-10-18T22:50:07.781Z,69.71
2022-10-18T22:55:08.523Z,69.73
2022-10-18T23:01:02.279Z,69.72
2022-10-18T23:05:08.682Z,69.74
2022-10-18T23:10:08.541Z,69.74
2022-10-18T23:15:08.275Z,69.75
2022-10-18T23:20:07.982Z,69.73
2022-10-18T23:25:07.710Z,69.75
2022-10-18T23:30:08.417Z,69.75
2022-10-18T23:35:08.129Z,69.77
2022-10-18T23:40:07.860Z,69.78
2022-10-18T23:45:08.554Z,69.79
2022-10-18T23:50:08.267Z,69.8
2022-10-18T23:55:07.947Z,69.79
